createdAt,value
2023-03-19T00:01:34.614Z,7.34
2023-03-19T00:04:04.709Z,7.26
2023-03-19T00:06:33.515Z,7.22
2023-03-19T00:09:02.571Z,7.21
2023-03-19T00:11:32.306Z,7.16
2023-03-19T00:14:02.836Z,7.18
2023-03-19T00:16:31.970Z,7.13
2023-03-19T00:19:01.118Z,7.13
2023-03-19T00:21:30.783Z,7.09
2023-03-19T00:24:02.331Z,7.04
2023-03-19T00:26:33.202Z,6.98
2023-03-19T00:29:05.385Z,6.93
2023-03-19T00:31:34.827Z,6.88
2023-03-19T00:34:05.225Z,6.86
2023-03-19T00:36:34.109Z,6.85
2023-03-19T00:39:03.242Z,6.87
2023-03-19T00:41:32.390Z,6.84
2023-03-19T00:44:02.997Z,6.82
2023-03-19T00:46:32.170Z,6.75
2023-03-19T00:49:01.487Z,6.74
2023-03-19T00:51:30.515Z,6.73
2023-03-19T00:53:59.679Z,6.73
2023-03-19T00:56:28.517Z,6.71
2023-03-19T00:58:58.274Z,6.67
2023-03-19T01:01:28.569Z,6.68
2023-03-19T01:03:57.677Z,6.65
2023-03-19T01:06:26.509Z,6.67
2023-03-19T01:08:56.261Z,6.67
2023-03-19T01:11:27.468Z,6.65
2023-03-19T01:13:56.664Z,6.60
2023-03-19T01:16:26.858Z,6.54
2023-03-19T01:18:56.583Z,6.46
2023-03-19T01:21:25.373Z,6.43
2023-03-19T01:23:54.501Z,6.37
2023-03-19T01:26:26.193Z,6.35
2023-03-19T01:28:59.962Z,6.38
2023-03-19T01:31:31.275Z,6.39
2023-03-19T01:34:19.117Z,6.36
2023-03-19T01:36:56.178Z,6.36
2023-03-19T01:39:31.697Z,6.36
2023-03-19T01:42:04.556Z,6.36
2023-03-19T01:44:42.038Z,6.35
2023-03-19T01:47:42.769Z,6.30
2023-03-19T01:50:28.862Z,6.29
2023-03-19T01:53:19.598Z,6.31
2023-03-19T01:56:00.945Z,6.25
2023-03-19T01:58:57.241Z,6.21
2023-03-19T02:01:53.502Z,6.17
2023-03-19T02:04:26.713Z,6.12
2023-03-19T02:06:58.180Z,6.07
2023-03-19T02:09:30.557Z,6.06
2023-03-19T02:12:02.264Z,6.06
2023-03-19T02:14:32.716Z,6.03
2023-03-19T02:17:02.001Z,6.03
2023-03-19T02:19:41.514Z,5.97
2023-03-19T02:22:13.949Z,5.95
2023-03-19T02:24:53.296Z,5.96
2023-03-19T02:27:25.333Z,5.91
2023-03-19T02:29:54.432Z,5.90
2023-03-19T02:32:25.431Z,5.93
2023-03-19T02:34:54.239Z,6.05
2023-03-19T02:37:33.688Z,6.04
2023-03-19T02:40:10.541Z,6.02
2023-03-19T02:42:41.063Z,5.95
2023-03-19T02:45:11.040Z,5.90
2023-03-19T02:47:41.031Z,5.86
2023-03-19T02:50:12.092Z,5.84
2023-03-19T02:52:41.249Z,5.78
2023-03-19T02:55:10.667Z,5.78
2023-03-19T02:57:41.222Z,5.80
2023-03-19T03:00:12.942Z,5.76
2023-03-19T03:02:42.720Z,5.70
2023-03-19T03:05:12.017Z,5.72
2023-03-19T03:07:41.419Z,5.66
2023-03-19T03:10:11.974Z,5.65
2023-03-19T03:12:42.467Z,5.66
2023-03-19T03:15:13.256Z,5.65
2023-03-19T03:17:45.378Z,5.62
2023-03-19T03:20:17.711Z,5.57
2023-03-19T03:22:48.292Z,5.56
2023-03-19T03:25:17.496Z,5.56
2023-03-19T03:27:47.927Z,5.56
2023-03-19T03:30:17.641Z,5.57
2023-03-19T03:32:46.932Z,5.55
2023-03-19T03:35:21.914Z,5.51
2023-03-19T03:37:51.534Z,5.52
2023-03-19T03:40:21.458Z,5.53
2023-03-19T03:42:52.314Z,5.51
2023-03-19T03:45:21.341Z,5.52
2023-03-19T03:47:52.457Z,5.45
2023-03-19T03:50:21.224Z,5.48
2023-03-19T03:52:53.567Z,5.50
2023-03-19T03:55:22.344Z,5.51
2023-03-19T03:57:52.943Z,5.50
2023-03-19T04:00:22.906Z,5.48
2023-03-19T04:02:52.736Z,5.47
2023-03-19T04:05:21.968Z,5.36
2023-03-19T04:07:53.704Z,5.37
2023-03-19T04:10:23.589Z,5.32
2023-03-19T04:12:54.012Z,5.35
2023-03-19T04:15:22.918Z,5.29
2023-03-19T04:17:54.743Z,5.24
2023-03-19T04:20:24.158Z,5.22
2023-03-19T04:22:53.313Z,5.19
2023-03-19T04:25:22.485Z,5.15
2023-03-19T04:27:53.498Z,5.16
2023-03-19T04:30:22.458Z,5.16
2023-03-19T04:32:51.727Z,5.06
2023-03-19T04:35:22.932Z,5.11
2023-03-19T04:37:52.831Z,5.00
2023-03-19T04:40:23.553Z,4.98
2023-03-19T04:42:54.913Z,4.96
2023-03-19T04:45:43.990Z,4.87
2023-03-19T04:48:13.157Z,4.90
2023-03-19T04:50:43.135Z,4.86
2023-03-19T04:53:12.978Z,4.85
2023-03-19T04:55:42.501Z,4.85
2023-03-19T04:58:19.801Z,4.85
2023-03-19T05:00:56.201Z,4.86
2023-03-19T05:03:36.303Z,4.89
2023-03-19T05:06:06.909Z,4.84
2023-03-19T05:08:36.163Z,4.81
2023-03-19T05:11:05.637Z,4.73
2023-03-19T05:13:48.376Z,4.72
2023-03-19T05:16:17.383Z,4.72
2023-03-19T05:18:46.690Z,4.72
2023-03-19T05:21:16.868Z,4.79
2023-03-19T05:23:46.591Z,4.81
2023-03-19T05:26:16.015Z,4.81
2023-03-19T05:29:05.167Z,4.80
2023-03-19T05:31:43.800Z,4.82
2023-03-19T05:34:13.048Z,4.91
2023-03-19T05:36:42.149Z,4.94
2023-03-19T05:39:16.696Z,4.97
2023-03-19T05:41:46.794Z,5.06
2023-03-19T05:44:22.510Z,5.09
2023-03-19T05:46:59.545Z,5.16
2023-03-19T05:49:32.622Z,5.23
2023-03-19T05:52:01.493Z,5.34
2023-03-19T05:54:32.756Z,5.45
2023-03-19T05:57:30.445Z,5.52
2023-03-19T06:00:10.993Z,5.65
2023-03-19T06:02:40.595Z,5.73
2023-03-19T06:05:18.738Z,5.81
2023-03-19T06:07:48.163Z,5.92
2023-03-19T06:10:25.383Z,5.97
2023-03-19T06:12:57.172Z,6.09
2023-03-19T06:15:42.085Z,6.14
2023-03-19T06:18:25.765Z,6.21
2023-03-19T06:20:55.030Z,6.25
2023-03-19T06:23:23.882Z,6.29
2023-03-19T06:25:53.031Z,6.41
2023-03-19T06:28:24.293Z,6.46
2023-03-19T06:30:56.113Z,6.57
2023-03-19T06:33:49.167Z,6.70
2023-03-19T06:36:18.844Z,6.83
2023-03-19T06:38:47.815Z,7.00
2023-03-19T06:41:17.011Z,7.15
2023-03-19T06:43:47.594Z,7.36
2023-03-19T06:46:18.264Z,7.60
2023-03-19T06:48:47.094Z,7.82
2023-03-19T06:51:16.187Z,7.97
2023-03-19T06:53:44.963Z,8.14
2023-03-19T06:56:14.075Z,8.29
2023-03-19T06:58:42.860Z,8.46
2023-03-19T07:01:12.009Z,8.70
2023-03-19T07:03:42.256Z,8.74
2023-03-19T07:06:11.621Z,8.88
2023-03-19T07:08:46.134Z,9.01
2023-03-19T07:11:16.561Z,9.08
2023-03-19T07:13:45.471Z,9.11
2023-03-19T07:16:14.745Z,9.27
2023-03-19T07:18:44.868Z,9.40
2023-03-19T07:21:13.922Z,9.61
2023-03-19T07:23:42.793Z,9.81
2023-03-19T07:26:12.051Z,10.04
2023-03-19T07:28:41.269Z,10.24
2023-03-19T07:31:10.671Z,10.45
2023-03-19T07:33:39.801Z,10.72
2023-03-19T07:36:11.393Z,10.96
2023-03-19T07:38:40.296Z,11.15
2023-03-19T07:41:09.444Z,11.40
2023-03-19T07:43:38.268Z,11.73
2023-03-19T07:46:08.033Z,11.90
2023-03-19T07:48:36.995Z,12.01
2023-03-19T07:51:07.320Z,12.13
2023-03-19T07:53:37.734Z,12.40
2023-03-19T07:56:08.094Z,12.68
2023-03-19T07:58:37.005Z,12.95
2023-03-19T08:01:07.162Z,13.23
2023-03-19T08:03:36.103Z,13.43
2023-03-19T08:06:05.659Z,13.74
2023-03-19T08:08:35.006Z,13.98
2023-03-19T08:11:06.875Z,14.26
2023-03-19T08:13:35.727Z,14.43
2023-03-19T08:16:05.195Z,14.59
2023-03-19T08:18:33.990Z,14.57
2023-03-19T08:21:03.167Z,14.70
2023-03-19T08:23:32.391Z,14.81
2023-03-19T08:26:01.503Z,14.87
2023-03-19T08:28:31.653Z,14.92
2023-03-19T08:31:07.775Z,15.15
2023-03-19T08:33:37.048Z,14.88
2023-03-19T08:36:09.895Z,14.99
2023-03-19T08:38:38.859Z,15.13
2023-03-19T08:41:08.238Z,15.32
2023-03-19T08:43:39.418Z,15.55
2023-03-19T08:46:08.577Z,15.39
2023-03-19T08:48:39.647Z,15.25
2023-03-19T08:51:10.836Z,15.21
2023-03-19T08:53:40.136Z,15.36
2023-03-19T08:56:10.185Z,15.55
2023-03-19T08:58:42.191Z,15.44
2023-03-19T09:01:14.643Z,15.68
2023-03-19T09:03:45.434Z,15.88
2023-03-19T09:06:15.663Z,16.12
2023-03-19T09:08:44.819Z,16.25
2023-03-19T09:11:16.885Z,16.17
2023-03-19T09:13:47.354Z,16.12
2023-03-19T09:16:17.009Z,16.02
2023-03-19T09:18:46.154Z,16.56
2023-03-19T09:21:15.289Z,17.05
2023-03-19T09:23:44.194Z,16.96
2023-03-19T09:26:13.347Z,17.34
2023-03-19T09:28:42.484Z,17.72
2023-03-19T09:31:13.238Z,17.65
2023-03-19T09:33:42.181Z,17.88
2023-03-19T09:36:11.421Z,17.80
2023-03-19T09:38:41.252Z,17.34
2023-03-19T09:41:22.021Z,17.48
2023-03-19T09:44:02.559Z,17.52
2023-03-19T09:46:44.523Z,17.35
2023-03-19T09:49:25.078Z,17.60
2023-03-19T09:51:58.522Z,17.66
2023-03-19T09:54:34.821Z,17.83
2023-03-19T09:57:04.274Z,17.89
2023-03-19T09:59:33.764Z,18.04
2023-03-19T10:02:32.546Z,18.86
2023-03-19T10:05:22.647Z,19.34
2023-03-19T10:08:34.586Z,19.89
2023-03-19T10:11:27.940Z,20.27
2023-03-19T10:14:25.378Z,20.47
2023-03-19T10:16:59.773Z,20.50
2023-03-19T10:19:43.012Z,20.67
2023-03-19T10:22:22.287Z,20.68
2023-03-19T10:24:55.293Z,20.52
2023-03-19T10:27:29.764Z,20.24
2023-03-19T10:29:58.951Z,19.95
2023-03-19T10:32:42.776Z,20.14
2023-03-19T10:35:24.144Z,20.73
2023-03-19T10:37:55.252Z,21.33
2023-03-19T10:40:35.639Z,21.63
2023-03-19T10:43:17.852Z,21.62
2023-03-19T10:45:49.194Z,22.11
2023-03-19T10:48:20.071Z,21.93
2023-03-19T10:50:57.611Z,21.74
2023-03-19T10:53:34.677Z,21.43
2023-03-19T10:56:07.690Z,21.28
2023-03-19T10:58:40.478Z,21.93
2023-03-19T11:01:13.078Z,21.87
2023-03-19T11:03:53.197Z,21.23
2023-03-19T11:06:28.487Z,21.70
2023-03-19T11:09:00.146Z,22.38
2023-03-19T11:11:37.213Z,22.00
2023-03-19T11:14:15.505Z,22.75
2023-03-19T11:16:56.915Z,23.81
2023-03-19T11:19:29.595Z,23.99
2023-03-19T11:22:21.500Z,25.28
2023-03-19T11:24:55.300Z,25.63
2023-03-19T11:27:34.874Z,24.78
2023-03-19T11:30:09.425Z,24.16
2023-03-19T11:33:10.477Z,24.18
2023-03-19T11:35:50.628Z,23.66
2023-03-19T11:38:33.014Z,23.70
2023-03-19T11:41:17.722Z,23.80
2023-03-19T11:43:59.760Z,23.21
2023-03-19T11:46:46.025Z,23.55
2023-03-19T11:49:39.142Z,23.11
2023-03-19T11:52:19.528Z,23.46
2023-03-19T11:55:18.708Z,24.42
2023-03-19T11:58:23.374Z,25.23
2023-03-19T12:00:55.122Z,24.86
2023-03-19T12:04:20.508Z,24.85
2023-03-19T12:07:04.174Z,24.96
2023-03-19T12:09:42.764Z,24.59
2023-03-19T12:12:26.920Z,23.99
2023-03-19T12:15:11.282Z,23.51
2023-03-19T12:17:59.783Z,23.25
2023-03-19T12:20:41.681Z,23.33
2023-03-19T12:23:35.835Z,22.99
2023-03-19T12:26:08.982Z,21.91
2023-03-19T12:28:53.674Z,21.59
2023-03-19T12:31:49.928Z,20.94
2023-03-19T12:34:32.533Z,20.49
2023-03-19T12:37:18.417Z,20.05
2023-03-19T12:40:05.749Z,19.62
2023-03-19T12:42:40.180Z,19.52
2023-03-19T12:45:28.226Z,18.89
2023-03-19T12:48:06.841Z,18.58
2023-03-19T12:50:41.667Z,18.52
2023-03-19T12:53:26.657Z,18.36
2023-03-19T12:55:59.602Z,18.18
2023-03-19T12:58:45.573Z,18.30
2023-03-19T13:01:22.384Z,18.45
2023-03-19T13:04:01.733Z,18.48
2023-03-19T13:06:38.260Z,18.21
2023-03-19T13:09:18.060Z,18.06
2023-03-19T13:11:53.825Z,17.92
2023-03-19T13:14:32.052Z,18.04
2023-03-19T13:17:14.304Z,18.03
2023-03-19T13:19:48.575Z,18.00
2023-03-19T13:22:23.356Z,17.91
2023-03-19T13:24:55.314Z,17.86
2023-03-19T13:27:30.849Z,17.86
2023-03-19T13:30:08.981Z,17.67
2023-03-19T13:32:44.446Z,17.86
2023-03-19T13:35:34.749Z,17.74
2023-03-19T13:38:18.563Z,17.62
2023-03-19T13:40:50.256Z,17.58
2023-03-19T13:43:44.202Z,17.60
2023-03-19T13:46:38.494Z,17.65
2023-03-19T13:49:35.409Z,17.61
2023-03-19T13:52:50.189Z,17.49
2023-03-19T13:55:34.441Z,17.44
2023-03-19T13:58:48.960Z,17.30
2023-03-19T14:01:44.652Z,17.38
2023-03-19T14:04:30.756Z,17.40
2023-03-19T14:07:12.272Z,17.36
2023-03-19T14:09:44.424Z,17.38
2023-03-19T14:12:26.261Z,17.45
2023-03-19T14:15:01.259Z,17.52
2023-03-19T14:17:35.608Z,17.54
2023-03-19T14:20:36.613Z,17.61
2023-03-19T14:23:36.195Z,17.62
2023-03-19T14:26:18.135Z,17.35
2023-03-19T14:28:56.230Z,17.31
2023-03-19T14:31:34.767Z,17.35
2023-03-19T14:34:19.608Z,17.26
2023-03-19T14:36:59.935Z,17.19
2023-03-19T14:39:32.808Z,17.19
2023-03-19T14:42:07.378Z,17.14
2023-03-19T14:45:21.036Z,17.07
2023-03-19T14:48:22.056Z,17.09
2023-03-19T14:51:41.505Z,17.15
2023-03-19T14:54:29.557Z,17.19
2023-03-19T14:56:58.928Z,17.15
2023-03-19T14:59:27.831Z,17.11
2023-03-19T15:01:57.008Z,17.12
2023-03-19T15:04:27.652Z,17.10
2023-03-19T15:07:02.070Z,17.02
2023-03-19T15:09:35.337Z,16.99
2023-03-19T15:12:49.670Z,16.92
2023-03-19T15:15:40.204Z,16.81
2023-03-19T15:18:12.763Z,16.73
2023-03-19T15:20:47.249Z,16.68
2023-03-19T15:23:27.273Z,16.64
2023-03-19T15:26:01.296Z,16.61
2023-03-19T15:28:34.567Z,16.53
2023-03-19T15:31:28.762Z,16.50
2023-03-19T15:33:57.616Z,16.42
2023-03-19T15:36:33.234Z,16.36
2023-03-19T15:39:07.063Z,16.28
2023-03-19T15:41:44.532Z,16.26
2023-03-19T15:44:20.006Z,16.15
2023-03-19T15:46:51.482Z,16.05
2023-03-19T15:49:27.149Z,15.95
2023-03-19T15:52:05.666Z,15.88
2023-03-19T15:54:35.994Z,15.77
2023-03-19T15:57:09.196Z,15.70
2023-03-19T15:59:38.753Z,15.60
2023-03-19T16:02:27.476Z,15.56
2023-03-19T16:05:20.416Z,15.43
2023-03-19T16:07:46.017Z,15.36
2023-03-19T16:10:38.325Z,15.30
2023-03-19T16:13:33.418Z,15.20
2023-03-19T16:16:08.108Z,15.08
2023-03-19T16:18:50.536Z,15.00
2023-03-19T16:21:24.207Z,14.85
2023-03-19T16:23:58.994Z,14.77
2023-03-19T16:26:37.148Z,14.68
2023-03-19T16:29:20.557Z,14.59
2023-03-19T16:31:53.364Z,14.49
2023-03-19T16:34:40.717Z,14.42
2023-03-19T16:37:44.220Z,14.30
2023-03-19T16:40:45.985Z,14.15
2023-03-19T16:43:19.816Z,13.98
2023-03-19T16:46:06.488Z,13.89
2023-03-19T16:48:35.749Z,13.75
2023-03-19T16:51:05.313Z,13.61
2023-03-19T16:53:34.369Z,13.52
2023-03-19T16:56:03.555Z,13.44
2023-03-19T16:58:36.682Z,13.35
2023-03-19T17:01:18.113Z,13.28
2023-03-19T17:03:48.392Z,13.20
2023-03-19T17:06:19.544Z,13.13
2023-03-19T17:08:48.881Z,13.04
2023-03-19T17:11:29.130Z,12.93
2023-03-19T17:14:00.806Z,12.82
2023-03-19T17:16:31.260Z,12.73
2023-03-19T17:19:00.602Z,12.68
2023-03-19T17:21:33.440Z,12.61
2023-03-19T17:24:21.685Z,12.55
2023-03-19T17:26:51.032Z,12.45
2023-03-19T17:29:23.099Z,12.38
2023-03-19T17:31:54.880Z,12.34
2023-03-19T17:34:26.592Z,12.23
2023-03-19T17:37:00.405Z,12.15
2023-03-19T17:39:31.543Z,12.09
2023-03-19T17:42:01.289Z,11.99
2023-03-19T17:44:30.518Z,11.90
2023-03-19T17:47:00.884Z,11.90
2023-03-19T17:49:32.812Z,11.86
2023-03-19T17:52:01.696Z,11.79
2023-03-19T17:54:30.978Z,11.72
2023-03-19T17:56:59.824Z,11.71
2023-03-19T17:59:28.905Z,11.68
2023-03-19T18:01:57.803Z,11.54
2023-03-19T18:04:28.328Z,11.37
2023-03-19T18:06:57.795Z,11.34
2023-03-19T18:09:29.040Z,11.38
2023-03-19T18:11:57.975Z,11.38
2023-03-19T18:14:27.199Z,11.32
2023-03-19T18:16:56.154Z,11.35
2023-03-19T18:19:33.023Z,11.39
2023-03-19T18:22:02.051Z,11.35
2023-03-19T18:24:31.158Z,11.30
2023-03-19T18:27:00.041Z,11.30
2023-03-19T18:29:29.180Z,11.21
2023-03-19T18:32:04.580Z,11.16
2023-03-19T18:34:35.486Z,11.15
2023-03-19T18:37:04.820Z,11.13
2023-03-19T18:39:38.091Z,11.08
2023-03-19T18:42:07.066Z,11.08
2023-03-19T18:44:36.151Z,11.06
2023-03-19T18:47:06.196Z,11.00
2023-03-19T18:49:36.730Z,10.93
2023-03-19T18:52:05.921Z,10.83
2023-03-19T18:54:35.041Z,10.81
2023-03-19T18:57:04.464Z,10.80
2023-03-19T18:59:35.397Z,10.80
2023-03-19T19:02:21.659Z,10.79
2023-03-19T19:04:52.283Z,10.78
2023-03-19T19:07:21.259Z,10.76
2023-03-19T19:09:50.507Z,10.73
2023-03-19T19:12:19.994Z,10.71
2023-03-19T19:14:49.446Z,10.71
2023-03-19T19:17:24.137Z,10.69
2023-03-19T19:19:54.801Z,10.64
2023-03-19T19:22:23.595Z,10.58
2023-03-19T19:24:52.786Z,10.59
2023-03-19T19:27:26.030Z,10.40
2023-03-19T19:29:55.429Z,10.39
2023-03-19T19:32:27.108Z,10.39
2023-03-19T19:34:58.577Z,10.38
2023-03-19T19:37:27.597Z,10.31
2023-03-19T19:39:56.723Z,10.27
2023-03-19T19:42:26.176Z,10.26
2023-03-19T19:44:59.422Z,10.19
2023-03-19T19:47:28.917Z,10.11
2023-03-19T19:49:59.565Z,10.07
2023-03-19T19:52:30.131Z,10.05
2023-03-19T19:55:01.171Z,10.06
2023-03-19T19:57:30.066Z,10.04
2023-03-19T19:59:59.223Z,10.04
2023-03-19T20:02:30.728Z,10.01
2023-03-19T20:05:01.211Z,9.98
2023-03-19T20:07:30.124Z,9.91
2023-03-19T20:09:59.267Z,9.85
2023-03-19T20:12:33.431Z,9.82
2023-03-19T20:15:03.031Z,9.76
2023-03-19T20:17:31.833Z,9.73
2023-03-19T20:20:02.299Z,9.68
2023-03-19T20:22:31.805Z,9.65
2023-03-19T20:25:01.070Z,9.60
2023-03-19T20:27:34.268Z,9.52
2023-03-19T20:30:05.153Z,9.46
2023-03-19T20:32:37.454Z,9.38
2023-03-19T20:35:18.095Z,9.36
2023-03-19T20:37:47.023Z,9.25
2023-03-19T20:40:16.941Z,9.16
2023-03-19T20:42:50.366Z,9.11
2023-03-19T20:45:23.615Z,9.09
2023-03-19T20:47:54.217Z,9.06
2023-03-19T20:50:28.021Z,9.02
2023-03-19T20:53:01.264Z,8.96
2023-03-19T20:55:34.000Z,8.90
2023-03-19T20:58:13.310Z,8.83
2023-03-19T21:00:42.611Z,8.79
2023-03-19T21:03:19.782Z,8.76
2023-03-19T21:05:55.467Z,8.71
2023-03-19T21:08:33.486Z,8.66
2023-03-19T21:11:03.427Z,8.58
2023-03-19T21:13:32.951Z,8.51
2023-03-19T21:16:02.837Z,8.41
2023-03-19T21:18:31.683Z,8.38
2023-03-19T21:21:02.188Z,8.39
2023-03-19T21:23:37.240Z,8.36
2023-03-19T21:26:16.179Z,8.32
2023-03-19T21:28:47.544Z,8.27
2023-03-19T21:31:20.692Z,8.21
2023-03-19T21:33:52.294Z,8.08
2023-03-19T21:36:22.843Z,8.00
2023-03-19T21:38:52.622Z,7.96
2023-03-19T21:41:28.451Z,7.93
2023-03-19T21:44:01.934Z,7.92
2023-03-19T21:46:33.820Z,7.86
2023-03-19T21:49:02.834Z,7.85
2023-03-19T21:51:33.360Z,7.83
2023-03-19T21:54:02.705Z,7.85
2023-03-19T21:56:42.559Z,7.88
2023-03-19T21:59:16.431Z,7.88
2023-03-19T22:01:45.794Z,7.77
2023-03-19T22:04:15.116Z,7.72
2023-03-19T22:06:46.795Z,7.66
2023-03-19T22:09:16.384Z,7.60
2023-03-19T22:11:46.146Z,7.59
2023-03-19T22:14:19.657Z,7.63
2023-03-19T22:16:53.413Z,7.62
2023-03-19T22:19:23.182Z,7.60
2023-03-19T22:21:53.688Z,7.62
2023-03-19T22:24:22.448Z,7.62
2023-03-19T22:26:57.744Z,7.72
2023-03-19T22:29:27.242Z,7.69
2023-03-19T22:31:57.695Z,7.63
2023-03-19T22:34:28.849Z,7.57
2023-03-19T22:37:00.708Z,7.56
2023-03-19T22:39:29.507Z,7.60
2023-03-19T22:41:58.598Z,7.59
2023-03-19T22:44:31.552Z,7.59
2023-03-19T22:47:03.103Z,7.55
2023-03-19T22:49:32.627Z,7.58
2023-03-19T22:52:03.044Z,7.59
2023-03-19T22:54:32.568Z,7.59
2023-03-19T22:57:01.612Z,7.60
2023-03-19T22:59:30.392Z,7.59
2023-03-19T23:02:00.923Z,7.58
2023-03-19T23:04:32.647Z,7.57
2023-03-19T23:07:03.230Z,7.54
2023-03-19T23:09:35.890Z,7.48
2023-03-19T23:14:36.815Z,7.41
2023-03-19T23:17:18.532Z,7.41
2023-03-19T23:19:47.322Z,7.39
2023-03-19T23:22:18.512Z,7.33
2023-03-19T23:24:47.348Z,7.40
2023-03-19T23:27:26.072Z,7.41
2023-03-19T23:29:56.012Z,7.41
2023-03-19T23:32:26.713Z,7.43
2023-03-19T23:35:01.185Z,7.40
2023-03-19T23:37:32.954Z,7.38
2023-03-19T23:40:02.073Z,7.35
2023-03-19T23:42:33.207Z,7.37
2023-03-19T23:45:04.509Z,7.35
2023-03-19T23:47:34.600Z,7.31
2023-03-19T23:50:03.809Z,7.23
2023-03-19T23:52:34.246Z,7.14
2023-03-19T23:55:03.101Z,7.13
2023-03-19T23:57:33.281Z,7.13
